ADDS METAR Data

Data at: 0211 UTC 24 Nov 2017

METAR for:KSAN (San Diego Intl Arpt, CA, US)
Text:KSAN 240151Z 35003KT 10SM FEW250 24/07 A2993 RMK AO2 SLP133 T02440067 $
Temperature: 24.4°C ( 76°F)
Dewpoint: 6.7°C ( 44°F) [RH = 32%]
Pressure (altimeter):29.93 inches Hg (1013.6 mb) [Sea level pressure: 1013.3 mb]
Winds:from the N (350 degrees) at 3 MPH (3 knots; 1.5 m/s)
Visibility:10 or more sm (16+ km)
Ceiling:at least 12,000 feet AGL
Clouds: few clouds at 25000 feet AGL
QC Flag:SOME DATA ABOVE MAY BE INACCURATE!!!"$" is an indication the sensor requires maintenance.